Time;durP1;ratioP1;P1;durP2;ratioP2;P2;SDS_P1;SDS_P2;PMS_P1;PMS_P2;Temp;Humidity;BMP_temperature;BMP_pressure;BME280_temperature;BME280_humidity;BME280_pressure;Samples;Min_cycle;Max_cycle;Signal;HPM_P1;HPM_P2
2022/06/03 00:01:31;;;;;;;;;10.00;9.67;;;;;22.39;52.45;101530.65;110476;1261;19877;-48
2022/06/03 00:03:58;;;;;;;;;9.00;9.00;;;;;22.38;52.58;101531.88;110579;1258;20263;-49
2022/06/03 00:06:26;;;;;;;;;13.00;11.00;;;;;22.38;52.51;101535.78;110584;1258;19566;-49
2022/06/03 00:08:53;;;;;;;;;9.00;9.00;;;;;22.37;52.52;101539.77;110455;1261;19518;-48
2022/06/03 00:11:20;;;;;;;;;10.33;9.67;;;;;22.38;52.53;101540.14;110604;1258;21361;-48
2022/06/03 00:13:48;;;;;;;;;11.00;10.50;;;;;22.37;52.55;101540.93;110577;1258;20152;-49
2022/06/03 00:16:15;;;;;;;;;10.67;10.67;;;;;22.37;52.60;101546.61;110614;1258;19991;-49
2022/06/03 00:18:48;;;;;;;;;9.33;9.33;;;;;22.36;52.65;101548.31;110612;1258;23931;-49
2022/06/03 00:21:15;;;;;;;;;10.00;9.50;;;;;22.36;52.37;101546.13;110576;1258;19242;-48
2022/06/03 00:23:42;;;;;;;;;9.67;9.67;;;;;22.37;52.57;101544.25;110617;1258;22116;-48
2022/06/03 00:26:10;;;;;;;;;12.00;10.00;;;;;22.36;52.48;101541.98;110567;1259;21686;-48
2022/06/03 00:28:37;;;;;;;;;9.33;9.00;;;;;22.35;52.42;101538.73;110501;1261;19242;-49
2022/06/03 00:31:05;;;;;;;;;7.33;7.00;;;;;22.35;52.53;101536.05;110621;1259;19417;-48
2022/06/03 00:33:32;;;;;;;;;9.00;9.00;;;;;22.35;52.41;101537.48;110630;1258;20272;-50
2022/06/03 00:35:59;;;;;;;;;10.00;9.00;;;;;22.35;52.37;101538.05;110587;1259;23001;-49
2022/06/03 00:38:26;;;;;;;;;10.00;9.00;;;;;22.36;52.43;101541.65;110580;1259;20339;-49
2022/06/03 00:40:54;;;;;;;;;12.00;9.67;;;;;22.35;52.44;101541.69;110579;1258;20274;-50
2022/06/03 00:43:21;;;;;;;;;9.00;9.00;;;;;22.35;52.50;101540.11;110626;1258;23643;-50
2022/06/03 00:45:48;;;;;;;;;9.00;9.00;;;;;22.35;52.25;101543.69;110625;1259;20018;-49
2022/06/03 00:48:15;;;;;;;;;13.00;11.33;;;;;22.35;52.29;101543.71;110583;1258;20376;-48
2022/06/03 00:50:42;;;;;;;;;10.00;9.50;;;;;22.36;52.50;101543.05;110398;1258;19338;-47
2022/06/03 00:53:10;;;;;;;;;11.33;10.67;;;;;22.35;52.40;101543.13;110371;1259;19902;-47
2022/06/03 00:55:39;;;;;;;;;10.00;10.00;;;;;22.36;52.14;101543.80;110448;1258;21166;-47
2022/06/03 00:58:07;;;;;;;;;9.00;9.00;;;;;22.36;52.24;101544.92;112327;1259;19237;-48
2022/06/03 01:00:34;;;;;;;;;10.00;9.50;;;;;22.37;52.23;101543.70;111127;1258;20897;-47
2022/06/03 01:03:01;;;;;;;;;10.00;9.00;;;;;22.39;52.16;101541.30;110365;1259;21288;-47
2022/06/03 01:05:29;;;;;;;;;9.33;9.33;;;;;22.39;52.04;101537.79;110460;1259;19167;-48
2022/06/03 01:07:56;;;;;;;;;11.00;10.50;;;;;22.39;52.12;101539.05;110577;1259;22430;-48
2022/06/03 01:10:24;;;;;;;;;12.00;10.00;;;;;22.39;52.25;101540.59;110556;1259;20715;-48
2022/06/03 01:12:51;;;;;;;;;10.00;10.00;;;;;22.37;51.92;101540.35;110706;1258;19222;-48
2022/06/03 01:15:18;;;;;;;;;9.67;9.67;;;;;22.37;52.19;101544.42;110587;1258;19689;-49
2022/06/03 01:17:46;;;;;;;;;11.33;11.00;;;;;22.37;52.29;101543.33;110588;1258;20588;-49
2022/06/03 01:20:14;;;;;;;;;7.00;7.00;;;;;22.36;52.08;101543.08;110607;1259;19282;-49
2022/06/03 01:22:41;;;;;;;;;9.33;9.00;;;;;22.36;52.05;101544.73;110554;1259;19566;-48
2022/06/03 01:25:10;;;;;;;;;10.00;10.00;;;;;22.36;51.93;101544.38;110552;1259;21363;-48
2022/06/03 01:27:37;;;;;;;;;12.00;10.00;;;;;22.35;52.13;101544.85;110537;1259;19169;-48
2022/06/03 01:30:05;;;;;;;;;11.00;10.00;;;;;22.35;52.11;101547.02;110549;1259;19519;-50
2022/06/03 01:32:32;;;;;;;;;13.00;10.00;;;;;22.34;51.99;101546.30;110566;1259;24644;-49
2022/06/03 01:34:59;;;;;;;;;9.00;9.00;;;;;22.35;52.06;101544.30;110578;1259;19009;-48
2022/06/03 01:37:26;;;;;;;;;10.67;10.67;;;;;22.34;51.92;101543.27;110604;1258;19656;-48
2022/06/03 01:39:54;;;;;;;;;11.33;11.33;;;;;22.34;51.97;101543.65;110639;1259;20312;-48
2022/06/03 01:42:21;;;;;;;;;12.00;10.00;;;;;22.33;51.98;101542.42;110580;1259;19162;-48
2022/06/03 01:44:48;;;;;;;;;9.00;9.00;;;;;22.34;51.92;101541.88;110584;1259;19602;-48
2022/06/03 01:47:15;;;;;;;;;9.67;9.67;;;;;22.34;52.06;101538.02;110576;1258;20393;-49
2022/06/03 01:49:42;;;;;;;;;10.00;10.00;;;;;22.35;51.95;101538.13;110586;1259;19563;-48
2022/06/03 01:52:10;;;;;;;;;10.00;10.00;;;;;22.34;52.14;101541.27;110620;1258;19476;-49
2022/06/03 01:54:38;;;;;;;;;12.67;12.00;;;;;22.34;52.22;101545.23;110573;1259;20360;-49
2022/06/03 01:57:05;;;;;;;;;9.00;9.00;;;;;22.34;52.17;101546.38;110560;1258;19288;-48
2022/06/03 01:59:32;;;;;;;;;11.00;9.50;;;;;22.34;51.89;101549.48;110575;1258;20049;-49
2022/06/03 02:01:59;;;;;;;;;10.33;10.00;;;;;22.34;51.99;101551.54;110572;1258;20326;-49
2022/06/03 02:04:27;;;;;;;;;12.50;12.00;;;;;22.33;51.89;101549.17;110577;1258;21808;-49
2022/06/03 02:06:54;;;;;;;;;13.00;12.00;;;;;22.34;51.87;101550.98;110467;1260;21058;-49
2022/06/03 02:09:21;;;;;;;;;12.67;12.00;;;;;22.33;51.91;101547.65;110575;1258;20349;-48
2022/06/03 02:11:48;;;;;;;;;10.00;10.00;;;;;22.32;51.69;101546.25;110557;1259;23745;-49
2022/06/03 02:14:16;;;;;;;;;10.67;10.00;;;;;22.32;51.88;101549.50;110587;1259;19644;-48
2022/06/03 02:16:43;;;;;;;;;9.33;9.33;;;;;22.32;51.60;101543.86;110599;1258;22029;-48
2022/06/03 02:19:10;;;;;;;;;14.00;13.33;;;;;22.33;51.92;101547.10;110551;1259;19147;-48
2022/06/03 02:21:37;;;;;;;;;9.33;9.33;;;;;22.33;51.75;101548.16;110582;1258;23713;-49
2022/06/03 02:24:05;;;;;;;;;11.00;11.00;;;;;22.32;51.69;101554.96;110569;1259;22873;-49
2022/06/03 02:26:32;;;;;;;;;12.33;12.33;;;;;22.32;51.66;101551.75;110551;1259;21425;-48
2022/06/03 02:31:40;;;;;;;;;12.00;11.33;;;;;22.32;51.64;101555.20;110683;1258;20340;-49
2022/06/03 02:34:08;;;;;;;;;9.00;9.00;;;;;22.33;51.61;101558.54;110597;1258;22434;-49
2022/06/03 02:36:35;;;;;;;;;12.00;12.00;;;;;22.32;51.75;101554.45;110640;1258;19495;-49
2022/06/03 02:39:02;;;;;;;;;10.00;9.67;;;;;22.33;51.80;101553.45;110590;1259;22165;-49
2022/06/03 02:41:29;;;;;;;;;12.00;9.33;;;;;22.31;51.69;101553.77;110560;1259;19106;-48
2022/06/03 02:43:57;;;;;;;;;12.00;11.33;;;;;22.32;51.71;101556.80;110463;1259;19710;-48
2022/06/03 02:46:24;;;;;;;;;10.00;10.00;;;;;22.32;51.51;101559.88;110487;1258;23147;-49
2022/06/03 02:48:52;;;;;;;;;13.00;12.00;;;;;22.33;51.59;101564.04;110631;1259;19249;-48
2022/06/03 02:51:19;;;;;;;;;9.67;9.00;;;;;22.32;51.45;101566.27;110546;1259;19629;-52
2022/06/03 02:53:46;;;;;;;;;10.00;10.00;;;;;22.32;51.48;101563.05;110622;1258;21133;-48
2022/06/03 02:56:13;;;;;;;;;10.67;10.67;;;;;22.31;51.38;101565.44;110591;1258;20241;-48
2022/06/03 02:58:41;;;;;;;;;11.00;9.00;;;;;22.31;51.37;101566.73;110589;1258;19621;-48
2022/06/03 03:01:08;;;;;;;;;10.00;9.00;;;;;22.32;51.61;101566.12;110562;1258;20471;-49
2022/06/03 03:03:35;;;;;;;;;12.00;10.00;;;;;22.34;51.69;101564.07;110578;1258;19264;-49
2022/06/03 03:06:03;;;;;;;;;10.00;10.00;;;;;22.32;51.45;101563.32;110507;1259;23698;-49
2022/06/03 03:08:30;;;;;;;;;12.00;12.00;;;;;22.33;51.49;101568.34;110589;1259;20253;-48
2022/06/03 03:10:57;;;;;;;;;13.00;12.00;;;;;22.33;51.37;101563.83;110588;1259;19341;-48
2022/06/03 03:13:24;;;;;;;;;13.00;10.00;;;;;22.33;51.18;101565.06;110607;1258;19703;-49
2022/06/03 03:15:52;;;;;;;;;10.67;10.67;;;;;22.33;51.38;101564.20;110618;1258;21648;-49
2022/06/03 03:18:19;;;;;;;;;10.00;9.67;;;;;22.32;51.19;101564.41;110602;1258;23628;-49
2022/06/03 03:20:46;;;;;;;;;9.00;9.00;;;;;22.32;51.26;101564.41;110571;1258;19623;-48
2022/06/03 03:23:16;;;;;;;;;9.67;9.67;;;;;22.34;51.14;101565.33;110622;1258;23656;-48
2022/06/03 03:25:43;;;;;;;;;14.00;12.00;;;;;22.33;51.30;101567.79;110696;1258;19272;-50
2022/06/03 03:28:10;;;;;;;;;10.00;10.00;;;;;22.33;51.15;101566.17;110587;1259;20253;-48
2022/06/03 03:30:37;;;;;;;;;9.00;9.00;;;;;22.34;51.32;101564.98;110711;1258;23255;-49
2022/06/03 03:33:05;;;;;;;;;12.00;12.00;;;;;22.33;51.17;101570.52;110637;1259;23156;-49
2022/06/03 03:35:32;;;;;;;;;10.00;9.33;;;;;22.34;51.16;101570.59;110465;1259;21043;-49
2022/06/03 03:37:59;;;;;;;;;10.33;10.00;;;;;22.35;51.12;101571.79;110611;1259;21085;-50
2022/06/03 03:40:26;;;;;;;;;9.00;9.00;;;;;22.34;51.21;101573.08;110600;1258;23049;-49
2022/06/03 03:42:54;;;;;;;;;10.00;9.50;;;;;22.36;51.19;101572.06;110604;1258;20280;-49
2022/06/03 03:45:21;;;;;;;;;12.33;10.67;;;;;22.36;51.23;101566.74;110610;1258;20478;-47
2022/06/03 03:47:49;;;;;;;;;10.33;10.33;;;;;22.37;51.15;101571.90;110606;1258;19367;-48
2022/06/03 03:50:16;;;;;;;;;13.33;12.00;;;;;22.36;51.07;101576.71;110562;1259;19556;-49
2022/06/03 03:52:43;;;;;;;;;9.67;9.67;;;;;22.37;51.07;101574.80;110601;1258;21106;-50
2022/06/03 03:55:10;;;;;;;;;10.67;10.33;;;;;22.36;50.88;101580.00;110591;1258;23048;-49
2022/06/03 03:57:38;;;;;;;;;9.00;9.00;;;;;22.36;51.03;101582.70;110619;1259;22093;-49
2022/06/03 04:00:05;;;;;;;;;9.00;9.00;;;;;22.37;50.96;101583.34;110578;1259;20492;-48
2022/06/03 04:02:32;;;;;;;;;12.50;12.00;;;;;22.35;51.14;101584.73;110565;1258;19445;-49
2022/06/03 04:05:00;;;;;;;;;12.33;12.00;;;;;22.37;50.94;101588.46;110575;1259;20375;-50
2022/06/03 04:07:27;;;;;;;;;12.00;12.00;;;;;22.37;50.83;101592.29;110680;1258;20931;-49
2022/06/03 04:09:54;;;;;;;;;12.67;11.33;;;;;22.37;50.97;101594.10;110647;1258;23292;-49
2022/06/03 04:12:22;;;;;;;;;10.00;10.00;;;;;22.36;50.85;101592.91;110614;1258;19728;-50
2022/06/03 04:14:53;;;;;;;;;10.00;10.00;;;;;22.37;50.98;101595.20;110622;1259;23547;-49
2022/06/03 04:17:20;;;;;;;;;14.00;12.67;;;;;22.38;50.79;101593.86;110661;1258;19157;-48
2022/06/03 04:19:48;;;;;;;;;10.00;10.00;;;;;22.37;50.96;101594.44;110578;1258;22760;-49
2022/06/03 04:22:15;;;;;;;;;10.00;10.00;;;;;22.38;50.80;101597.45;110598;1259;20909;-48
2022/06/03 04:24:42;;;;;;;;;11.33;10.00;;;;;22.38;50.89;101597.85;110610;1258;19224;-51
2022/06/03 04:27:09;;;;;;;;;11.50;10.00;;;;;22.37;50.85;101602.52;110562;1259;19677;-49
2022/06/03 04:29:39;;;;;;;;;12.00;11.33;;;;;22.36;50.89;101602.09;110582;1259;20410;-51
2022/06/03 04:32:06;;;;;;;;;12.00;12.00;;;;;22.35;50.82;101601.61;110564;1259;20197;-48
2022/06/03 04:34:33;;;;;;;;;11.00;11.00;;;;;22.36;50.75;101604.98;110586;1259;19495;-52
2022/06/03 04:37:01;;;;;;;;;12.00;10.00;;;;;22.37;50.77;101605.46;110619;1258;20338;-49
2022/06/03 04:39:28;;;;;;;;;11.00;10.00;;;;;22.37;51.05;101603.01;110505;1258;19370;-49
2022/06/03 04:41:56;;;;;;;;;10.00;9.33;;;;;22.38;50.91;101603.86;110561;1259;20074;-48
2022/06/03 04:44:23;;;;;;;;;11.00;11.00;;;;;22.37;50.92;101600.86;110500;1258;23171;-49
2022/06/03 04:46:50;;;;;;;;;10.67;10.00;;;;;22.38;51.00;101601.58;110540;1258;21339;-49
2022/06/03 04:49:18;;;;;;;;;10.00;9.00;;;;;22.40;50.82;101605.66;110586;1258;20390;-49
2022/06/03 04:51:45;;;;;;;;;10.00;10.00;;;;;22.40;50.88;101608.15;110641;1258;20970;-49
2022/06/03 04:54:12;;;;;;;;;12.33;12.00;;;;;22.40;50.85;101607.23;110601;1259;23521;-50
2022/06/03 04:56:39;;;;;;;;;11.33;11.33;;;;;22.39;50.80;101611.88;110600;1258;23632;-50
2022/06/03 04:59:07;;;;;;;;;14.00;11.00;;;;;22.40;50.99;101617.42;110617;1259;20324;-49
2022/06/03 05:01:35;;;;;;;;;11.33;10.67;;;;;22.39;50.90;101614.85;110607;1259;19220;-49
2022/06/03 05:04:02;;;;;;;;;10.00;9.33;;;;;22.40;50.81;101617.11;110588;1259;19520;-50
2022/06/03 05:06:30;;;;;;;;;10.00;9.00;;;;;22.42;50.73;101621.42;110404;1260;20268;-49
2022/06/03 05:08:57;;;;;;;;;11.00;11.00;;;;;22.44;50.85;101625.05;110439;1260;19285;-49
2022/06/03 05:11:25;;;;;;;;;14.00;11.00;;;;;22.45;50.87;101624.98;110430;1260;20499;-48
2022/06/03 05:13:52;;;;;;;;;9.50;9.50;;;;;22.46;50.92;101626.11;110432;1261;20465;-49
2022/06/03 05:16:19;;;;;;;;;10.33;10.00;;;;;22.47;50.75;101629.32;110430;1261;19029;-49
2022/06/03 05:18:46;;;;;;;;;12.67;10.67;;;;;22.48;50.73;101632.45;110466;1260;19521;-49
2022/06/03 05:21:14;;;;;;;;;12.00;10.00;;;;;22.48;50.78;101635.17;110345;1261;22297;-49
2022/06/03 05:23:41;;;;;;;;;10.00;9.00;;;;;22.48;50.82;101644.70;110352;1262;23750;-49
2022/06/03 05:26:08;;;;;;;;;11.00;11.00;;;;;22.49;50.68;101646.58;110447;1261;19809;-49
2022/06/03 05:28:36;;;;;;;;;13.00;11.00;;;;;22.51;50.70;101644.17;110393;1260;20336;-49
2022/06/03 05:31:03;;;;;;;;;12.33;11.00;;;;;22.52;50.83;101647.90;110383;1261;23449;-48
2022/06/03 05:33:30;;;;;;;;;10.00;10.00;;;;;22.52;50.75;101646.05;110387;1260;19572;-48
2022/06/03 05:35:57;;;;;;;;;13.00;11.00;;;;;22.53;50.63;101652.69;110451;1261;20363;-49
2022/06/03 05:38:25;;;;;;;;;11.00;10.00;;;;;22.55;50.74;101654.11;110444;1261;19391;-51
2022/06/03 05:40:52;;;;;;;;;14.50;13.00;;;;;22.58;50.91;101652.98;110444;1261;23062;-48
2022/06/03 05:43:19;;;;;;;;;9.67;9.33;;;;;22.68;51.55;101655.23;109908;1260;698111;-49
2022/06/03 05:45:47;;;;;;;;;14.33;12.00;;;;;22.74;52.21;101660.44;110450;1260;22474;-49
2022/06/03 05:48:14;;;;;;;;;12.67;11.00;;;;;22.73;52.32;101658.52;110398;1260;20372;-50
2022/06/03 05:50:41;;;;;;;;;11.50;10.00;;;;;22.70;52.12;101657.17;110417;1260;20317;-48
2022/06/03 05:53:09;;;;;;;;;10.00;10.00;;;;;22.65;51.85;101652.59;110422;1260;19289;-47
2022/06/03 05:55:36;;;;;;;;;13.50;13.00;;;;;22.66;51.47;101653.78;110406;1260;21095;-49
2022/06/03 05:58:03;;;;;;;;;13.00;13.00;;;;;22.64;51.01;101647.97;110481;1261;19941;-49
2022/06/03 06:00:31;;;;;;;;;14.00;14.00;;;;;22.63;50.78;101643.48;110395;1260;19172;-48
2022/06/03 06:02:58;;;;;;;;;16.67;15.00;;;;;22.64;50.16;101645.23;110424;1260;19539;-49
2022/06/03 06:05:26;;;;;;;;;18.00;16.67;;;;;22.68;50.00;101649.21;110411;1261;20570;-49
2022/06/03 06:07:53;;;;;;;;;15.00;14.00;;;;;22.70;49.84;101641.70;110525;1260;22178;-48
2022/06/03 06:10:20;;;;;;;;;14.67;14.67;;;;;22.76;49.64;101643.65;110319;1260;22741;-50
2022/06/03 06:12:48;;;;;;;;;16.67;13.67;;;;;22.77;49.42;101645.15;110308;1260;20753;-47
2022/06/03 06:15:15;;;;;;;;;16.67;15.33;;;;;22.80;49.73;101648.11;110421;1261;19198;-48
2022/06/03 06:17:42;;;;;;;;;19.00;17.00;;;;;22.81;49.43;101648.17;110401;1260;19849;-51
2022/06/03 06:20:12;;;;;;;;;17.33;15.33;;;;;22.83;49.44;101651.09;110396;1260;20401;-48
2022/06/03 06:22:39;;;;;;;;;15.00;15.00;;;;;22.78;49.14;101653.27;110253;1261;23104;-51
2022/06/03 06:25:06;;;;;;;;;17.00;15.33;;;;;22.71;48.83;101656.73;110288;1260;19883;-51
2022/06/03 06:27:34;;;;;;;;;12.33;11.67;;;;;22.65;48.24;101659.69;110240;1261;20436;-48
2022/06/03 06:30:01;;;;;;;;;16.67;14.67;;;;;22.62;47.87;101659.14;110396;1261;19203;-45
2022/06/03 06:32:28;;;;;;;;;12.00;12.00;;;;;22.62;47.93;101649.61;110355;1260;19748;-47
2022/06/03 06:34:55;;;;;;;;;14.00;13.67;;;;;22.65;47.26;101644.35;110418;1260;20364;-48
2022/06/03 06:37:23;;;;;;;;;12.00;12.00;;;;;22.71;46.90;101648.88;110435;1260;23013;-48
2022/06/03 06:39:51;;;;;;;;;12.67;12.67;;;;;22.72;46.61;101653.39;110479;1261;23805;-49
2022/06/03 06:42:19;;;;;;;;;17.00;14.00;;;;;22.75;46.58;101651.21;110376;1261;20625;-50
2022/06/03 06:44:46;;;;;;;;;13.00;12.33;;;;;22.81;46.57;101653.79;110434;1261;19106;-50
2022/06/03 06:47:13;;;;;;;;;10.67;10.00;;;;;22.83;46.41;101652.86;110389;1261;19603;-49
2022/06/03 06:49:41;;;;;;;;;10.67;10.33;;;;;22.74;46.13;101659.99;110390;1261;20318;-50
2022/06/03 06:52:08;;;;;;;;;10.00;10.00;;;;;22.73;46.35;101658.77;110447;1260;24034;-49
2022/06/03 06:54:35;;;;;;;;;12.00;11.00;;;;;22.74;46.30;101654.05;110448;1261;19759;-50
2022/06/03 06:57:03;;;;;;;;;11.00;10.00;;;;;22.73;45.35;101652.48;110453;1260;20376;-50
2022/06/03 06:59:30;;;;;;;;;9.67;8.67;;;;;22.74;45.11;101648.92;110421;1261;23056;-52
2022/06/03 07:01:57;;;;;;;;;9.00;9.00;;;;;22.76;45.02;101648.13;110433;1261;22788;-51
2022/06/03 07:04:25;;;;;;;;;10.00;10.00;;;;;22.78;44.77;101647.96;110324;1260;20479;-49
2022/06/03 07:06:53;;;;;;;;;11.00;10.00;;;;;22.79;44.65;101645.52;110408;1261;19225;-51
2022/06/03 07:09:20;;;;;;;;;9.00;9.00;;;;;22.75;44.33;101641.40;110337;1261;19887;-50
2022/06/03 07:11:48;;;;;;;;;10.67;9.67;;;;;22.71;44.00;101648.20;110410;1261;20372;-48
2022/06/03 07:14:15;;;;;;;;;9.67;9.00;;;;;22.76;43.95;101640.10;110426;1260;19215;-49
2022/06/03 07:22:12;;;;;;;;;9.67;9.00;;;;;22.91;43.65;101633.77;110147;1262;23752;-52
2022/06/03 07:24:40;;;;;;;;;10.67;10.00;;;;;22.93;43.65;101631.54;110388;1260;19626;-48
2022/06/03 07:27:07;;;;;;;;;9.00;9.00;;;;;22.94;44.08;101631.59;110418;1260;23270;-52
2022/06/03 07:29:34;;;;;;;;;10.33;10.00;;;;;22.99;44.28;101629.95;110431;1260;19295;-50
2022/06/03 07:32:01;;;;;;;;;10.00;9.33;;;;;23.02;44.27;101630.15;110416;1261;19618;-49
2022/06/03 07:34:29;;;;;;;;;9.00;9.00;;;;;23.04;44.45;101629.57;110385;1261;20934;-50
2022/06/03 07:36:56;;;;;;;;;10.00;9.00;;;;;22.94;44.02;101627.95;110443;1261;19324;-51
2022/06/03 07:39:23;;;;;;;;;9.00;9.00;;;;;22.91;42.94;101627.69;110147;1262;23728;-49
2022/06/03 07:41:51;;;;;;;;;9.00;9.00;;;;;22.99;42.86;101624.86;110297;1260;20473;-50
2022/06/03 07:44:18;;;;;;;;;9.00;9.00;;;;;23.00;42.73;101626.02;110429;1261;19225;-49
2022/06/03 07:46:49;;;;;;;;;7.00;7.00;;;;;23.05;42.60;101620.89;110401;1260;19672;-51
2022/06/03 07:49:16;;;;;;;;;9.00;7.00;;;;;23.12;42.57;101622.09;110420;1260;20546;-48
2022/06/03 07:51:44;;;;;;;;;10.00;7.00;;;;;23.18;42.29;101621.10;110375;1260;22902;-51
2022/06/03 07:54:11;;;;;;;;;10.33;10.33;;;;;23.18;42.67;101613.60;110445;1260;19478;-49
2022/06/03 07:56:39;;;;;;;;;10.00;9.33;;;;;23.17;42.48;101619.89;110393;1260;20533;-50
2022/06/03 07:59:06;;;;;;;;;10.33;10.00;;;;;23.21;42.60;101617.88;110445;1261;19010;-53
2022/06/03 08:01:33;;;;;;;;;11.00;11.00;;;;;23.22;42.66;101617.90;110323;1261;22416;-52
2022/06/03 08:04:00;;;;;;;;;10.00;10.00;;;;;23.21;42.19;101617.70;110386;1260;20341;-50
2022/06/03 08:06:30;;;;;;;;;10.67;9.00;;;;;23.12;41.78;101616.58;110388;1261;19373;-49
2022/06/03 08:11:42;;;;;;;;;9.00;9.00;;;;;22.99;41.38;101618.32;110327;1261;21956;-52
2022/06/03 08:14:09;;;;;;;;;9.67;8.67;;;;;23.02;41.10;101617.06;110355;1260;19626;-54
2022/06/03 08:16:37;;;;;;;;;9.67;9.00;;;;;23.11;41.11;101620.92;110429;1260;19491;-50
2022/06/03 08:19:04;;;;;;;;;10.67;10.33;;;;;23.16;41.34;101621.29;110369;1260;20451;-51
2022/06/03 08:21:32;;;;;;;;;9.00;9.00;;;;;23.03;41.17;101620.90;110357;1261;19153;-49
2022/06/03 08:23:59;;;;;;;;;10.00;9.00;;;;;22.89;41.20;101618.14;110419;1261;19559;-50
2022/06/03 08:26:27;;;;;;;;;10.00;9.00;;;;;22.91;41.17;101617.40;110422;1259;20613;-50
2022/06/03 08:28:54;;;;;;;;;9.00;7.00;;;;;22.85;41.00;101615.27;110284;1260;19709;-48
2022/06/03 08:31:21;;;;;;;;;7.33;7.00;;;;;22.98;41.34;101616.17;110411;1260;19596;-48
2022/06/03 08:33:49;;;;;;;;;8.00;7.33;;;;;23.03;41.42;101616.52;110197;1260;20348;-51
2022/06/03 08:36:16;;;;;;;;;43.00;36.00;;;;;22.96;41.46;101612.11;110333;1261;19376;-50
2022/06/03 08:38:43;;;;;;;;;64.67;50.33;;;;;23.01;41.50;101610.73;110346;1260;21389;-50
2022/06/03 08:41:11;;;;;;;;;81.33;60.00;;;;;23.09;41.14;101612.40;110307;1261;20573;-50
2022/06/03 08:43:38;;;;;;;;;91.33;67.33;;;;;23.10;40.91;101608.48;110156;1261;19046;-51
2022/06/03 08:46:05;;;;;;;;;85.33;64.00;;;;;23.11;40.80;101610.90;110258;1261;20753;-49
2022/06/03 08:48:35;;;;;;;;;83.67;63.33;;;;;23.19;40.76;101609.81;110215;1260;20187;-51
2022/06/03 08:51:04;;;;;;;;;75.00;54.33;;;;;23.24;40.69;101602.93;110353;1260;19223;-49
2022/06/03 08:53:32;;;;;;;;;58.67;43.33;;;;;23.23;40.80;101592.77;110378;1261;19699;-53
2022/06/03 08:55:59;;;;;;;;;47.67;40.67;;;;;23.26;40.60;101602.77;110313;1260;20402;-49
2022/06/03 08:58:27;;;;;;;;;18.67;15.67;;;;;23.24;40.61;101603.95;110296;1261;19342;-45
2022/06/03 09:00:54;;;;;;;;;29.67;23.00;;;;;23.30;40.18;101601.87;110272;1261;20042;-48
2022/06/03 09:03:21;;;;;;;;;18.67;17.00;;;;;23.37;39.76;101604.42;110202;1261;20595;-49
2022/06/03 09:05:48;;;;;;;;;18.33;17.33;;;;;23.26;39.53;101600.70;110225;1261;19285;-52
2022/06/03 09:08:16;;;;;;;;;14.33;13.33;;;;;23.14;39.40;101604.79;110351;1259;22937;-50
2022/06/03 09:10:43;;;;;;;;;14.67;14.33;;;;;23.22;39.08;101604.73;110420;1259;20814;-50
2022/06/03 09:13:11;;;;;;;;;12.00;10.50;;;;;23.25;39.03;101607.41;110457;1259;19615;-50
2022/06/03 09:15:38;;;;;;;;;10.67;10.67;;;;;23.26;38.95;101603.95;110416;1259;23676;-50
2022/06/03 09:18:06;;;;;;;;;9.00;9.00;;;;;23.20;39.15;101603.00;110347;1259;22821;-49
2022/06/03 09:20:33;;;;;;;;;9.00;8.33;;;;;23.08;39.44;101603.98;110422;1259;24241;-48
2022/06/03 09:23:00;;;;;;;;;10.00;10.00;;;;;22.99;39.84;101603.73;110428;1258;19671;-50
2022/06/03 09:25:28;;;;;;;;;9.50;9.50;;;;;22.96;39.96;101607.18;110386;1259;20341;-49
2022/06/03 09:27:55;;;;;;;;;9.33;9.33;;;;;23.01;39.97;101607.63;110381;1259;19399;-53
2022/06/03 09:30:22;;;;;;;;;9.00;9.00;;;;;23.11;39.81;101604.31;110343;1259;24177;-49
2022/06/03 09:32:50;;;;;;;;;8.33;8.00;;;;;23.20;39.25;101601.20;110356;1259;21027;-49
2022/06/03 09:35:17;;;;;;;;;6.67;6.67;;;;;23.31;38.93;101599.61;110403;1259;19603;-49
2022/06/03 09:37:44;;;;;;;;;9.00;7.00;;;;;23.29;38.95;101595.67;110372;1259;19476;-51
2022/06/03 09:40:12;;;;;;;;;7.00;7.00;;;;;23.21;39.04;101597.91;110352;1261;23138;-49
2022/06/03 09:42:39;;;;;;;;;7.00;7.00;;;;;23.15;39.01;101600.27;110370;1259;19680;-48
2022/06/03 09:45:06;;;;;;;;;7.00;7.00;;;;;23.14;38.74;101597.78;110289;1259;19637;-53
2022/06/03 09:47:34;;;;;;;;;7.00;7.00;;;;;23.15;38.78;101601.02;110315;1261;22611;-49
2022/06/03 09:50:01;;;;;;;;;7.00;7.00;;;;;23.27;38.87;101598.95;110423;1261;19782;-49
2022/06/03 09:52:28;;;;;;;;;6.33;6.33;;;;;23.43;38.50;101599.41;110235;1259;19609;-51
2022/06/03 09:54:56;;;;;;;;;6.00;6.00;;;;;23.46;38.09;101594.99;110439;1261;20346;-50
2022/06/03 09:57:23;;;;;;;;;9.00;7.00;;;;;23.43;38.52;101600.67;110451;1260;19150;-52
2022/06/03 09:59:50;;;;;;;;;7.00;7.00;;;;;23.39;38.84;101600.10;110445;1260;19545;-53
2022/06/03 10:02:17;;;;;;;;;6.67;6.00;;;;;23.28;37.98;101606.73;110407;1260;22958;-48
2022/06/03 10:04:45;;;;;;;;;8.33;8.33;;;;;23.20;37.57;101606.03;110496;1259;22756;-51
2022/06/03 10:07:12;;;;;;;;;9.00;9.00;;;;;23.16;37.81;101605.05;110584;1258;19619;-48
2022/06/03 10:17:54;;;;;;;;;10.33;9.67;;;;;23.21;38.96;101600.10;110534;1259;21442;-51
2022/06/03 10:20:21;;;;;;;;;10.00;10.00;;;;;23.26;39.22;101596.67;110505;1258;19502;-50
2022/06/03 10:22:49;;;;;;;;;10.50;10.50;;;;;23.19;39.06;101596.00;110621;1259;19857;-49
2022/06/03 10:25:17;;;;;;;;;13.00;10.00;;;;;23.16;39.49;101599.98;110630;1258;20747;-49
2022/06/03 10:27:44;;;;;;;;;10.00;9.00;;;;;23.12;39.48;101595.52;110618;1259;19039;-50
2022/06/03 10:30:12;;;;;;;;;9.67;9.67;;;;;23.20;40.34;101586.40;110573;1258;19391;-48
2022/06/03 10:32:39;;;;;;;;;10.67;10.33;;;;;23.33;39.62;101580.17;110609;1258;20586;-49
2022/06/03 10:35:06;;;;;;;;;10.67;10.00;;;;;23.39;40.18;101581.70;110462;1260;23882;-49
2022/06/03 10:37:34;;;;;;;;;10.00;10.00;;;;;23.30;39.61;101578.34;110562;1258;23244;-47
2022/06/03 10:40:01;;;;;;;;;9.00;9.00;;;;;23.22;39.55;101581.42;110635;1258;20257;-50
2022/06/03 10:42:28;;;;;;;;;9.00;9.00;;;;;23.23;39.67;101583.89;110602;1258;19220;-49
2022/06/03 10:44:56;;;;;;;;;10.00;9.00;;;;;23.09;39.52;101588.20;110472;1258;19462;-48
2022/06/03 10:47:23;;;;;;;;;10.00;9.00;;;;;22.90;39.19;101583.92;110535;1258;20417;-49
2022/06/03 10:49:51;;;;;;;;;9.00;9.00;;;;;22.91;39.13;101582.68;110537;1258;19200;-49
2022/06/03 11:03:18;;;;;;;;;9.00;8.33;;;;;23.17;37.85;101558.60;110470;1258;20497;-51
2022/06/03 11:05:45;;;;;;;;;10.33;10.00;;;;;23.19;37.80;101554.26;110527;1258;19329;-49
2022/06/03 11:08:13;;;;;;;;;9.00;9.00;;;;;23.19;37.95;101550.44;110565;1259;19591;-48
2022/06/03 11:10:40;;;;;;;;;11.67;10.00;;;;;23.15;38.26;101546.13;110612;1258;20323;-49
2022/06/03 11:13:08;;;;;;;;;8.33;7.00;;;;;23.12;38.13;101542.99;110642;1259;19218;-49
2022/06/03 11:15:35;;;;;;;;;9.67;9.00;;;;;23.10;38.27;101541.04;110587;1258;19600;-48
2022/06/03 11:18:03;;;;;;;;;10.00;9.67;;;;;23.04;37.97;101539.02;110593;1258;21609;-49
2022/06/03 11:20:30;;;;;;;;;9.00;9.00;;;;;23.04;37.87;101535.73;110455;1260;19278;-48
2022/06/03 11:22:57;;;;;;;;;10.67;10.00;;;;;23.03;37.78;101530.87;110602;1258;19438;-48
2022/06/03 11:25:26;;;;;;;;;10.00;10.00;;;;;23.08;37.54;101525.63;110587;1259;20398;-48
2022/06/03 11:27:54;;;;;;;;;10.67;10.33;;;;;23.05;37.46;101523.88;110533;1258;23927;-44
2022/06/03 11:30:21;;;;;;;;;11.00;10.00;;;;;23.03;37.30;101520.68;110354;1259;21527;-51
2022/06/03 11:32:48;;;;;;;;;10.33;10.00;;;;;23.01;37.45;101518.49;110452;1259;23135;-48
2022/06/03 11:35:16;;;;;;;;;11.00;11.00;;;;;23.09;37.61;101516.88;110460;1261;19861;-50
2022/06/03 11:37:43;;;;;;;;;10.00;9.00;;;;;23.06;37.49;101515.91;110593;1258;19727;-49